NBNE8 TNCM-TAPA
Flight info
| Callsign | NBNE8 |
|---|---|
| Flight time | 0h 27m |
| Altitude | 15000 |
| Route | PJM B520 ANU |
| Aircraft | PC12/L-SDFGRWY/S |
Departure
| Time | 2026-04-30 20:58 |
|---|---|
| Airport | Princess Juliana International Airport (TNCM) |
Arrival
| Time | 2026-04-30 21:25 |
|---|---|
| Airport | V. C. Bird International Airport (TAPA) |
| Time | Latitude | Longitude | Altitude | Speed | Heading |
|---|---|---|---|---|---|
| 2026-04-30 20:53 | 18.04201 | -63.11211 | 17 ft | 0 kts | 171° |
| 2026-04-30 20:57 | 18.04165 | -63.11208 | 17 ft | 12 kts | 200° |
| 2026-04-30 20:57 | 18.04111 | -63.11291 | 17 ft | 13 kts | 184° |
| 2026-04-30 20:58 | 18.04136 | -63.10592 | 60 ft | 99 kts | 82° |
| 2026-04-30 20:58 | 18.04248 | -63.09756 | 298 ft | 129 kts | 86° |
| 2026-04-30 20:58 | 18.04268 | -63.08816 | 622 ft | 137 kts | 97° |
| 2026-04-30 20:58 | 18.03790 | -63.08006 | 962 ft | 133 kts | 128° |
| 2026-04-30 20:59 | 18.02937 | -63.06262 | 1841 ft | 135 kts | 109° |
| 2026-04-30 20:59 | 18.02629 | -63.05320 | 2397 ft | 137 kts | 107° |
| 2026-04-30 21:00 | 18.02077 | -63.03369 | 3737 ft | 143 kts | 102° |
| 2026-04-30 21:00 | 18.01194 | -63.01622 | 5119 ft | 145 kts | 138° |
| 2026-04-30 21:01 | 17.99554 | -63.00182 | 6240 ft | 172 kts | 138° |
| 2026-04-30 21:01 | 17.98564 | -62.99320 | 6531 ft | 197 kts | 138° |
| 2026-04-30 21:01 | 17.96248 | -62.97286 | 6985 ft | 226 kts | 138° |
| 2026-04-30 21:02 | 17.95046 | -62.96223 | 7364 ft | 227 kts | 139° |
| 2026-04-30 21:02 | 17.93843 | -62.95141 | 7725 ft | 228 kts | 138° |
| 2026-04-30 21:02 | 17.92570 | -62.94129 | 8076 ft | 230 kts | 144° |
| 2026-04-30 21:02 | 17.91313 | -62.93082 | 8425 ft | 232 kts | 136° |
| 2026-04-30 21:03 | 17.90277 | -62.91789 | 8769 ft | 233 kts | 124° |
| 2026-04-30 21:03 | 17.89391 | -62.90379 | 9081 ft | 235 kts | 123° |
| 2026-04-30 21:03 | 17.88471 | -62.88960 | 9419 ft | 236 kts | 125° |
| 2026-04-30 21:03 | 17.87509 | -62.87553 | 9743 ft | 238 kts | 126° |
| 2026-04-30 21:04 | 17.86543 | -62.86140 | 10055 ft | 239 kts | 126° |
| 2026-04-30 21:04 | 17.85574 | -62.84709 | 10323 ft | 241 kts | 126° |
| 2026-04-30 21:04 | 17.83621 | -62.81826 | 10877 ft | 243 kts | 126° |
| 2026-04-30 21:05 | 17.82635 | -62.80375 | 11152 ft | 244 kts | 127° |
| 2026-04-30 21:05 | 17.81645 | -62.78917 | 11393 ft | 246 kts | 127° |
| 2026-04-30 21:05 | 17.80651 | -62.77450 | 11632 ft | 247 kts | 127° |
| 2026-04-30 21:05 | 17.79652 | -62.75978 | 11863 ft | 248 kts | 127° |
| 2026-04-30 21:06 | 17.78647 | -62.74499 | 12079 ft | 249 kts | 127° |
| 2026-04-30 21:06 | 17.77640 | -62.73014 | 12288 ft | 250 kts | 127° |
| 2026-04-30 21:06 | 17.76625 | -62.71522 | 12487 ft | 252 kts | 127° |
| 2026-04-30 21:06 | 17.75622 | -62.70044 | 12677 ft | 253 kts | 127° |
| 2026-04-30 21:07 | 17.74601 | -62.68542 | 12854 ft | 254 kts | 128° |
| 2026-04-30 21:07 | 17.73576 | -62.67033 | 13034 ft | 255 kts | 128° |
| 2026-04-30 21:07 | 17.72543 | -62.65515 | 13203 ft | 255 kts | 127° |
| 2026-04-30 21:07 | 17.71513 | -62.64000 | 13475 ft | 251 kts | 128° |
| 2026-04-30 21:08 | 17.70521 | -62.62538 | 13965 ft | 245 kts | 128° |
| 2026-04-30 21:08 | 17.69522 | -62.61073 | 14245 ft | 248 kts | 128° |
| 2026-04-30 21:08 | 17.68518 | -62.59597 | 14539 ft | 249 kts | 128° |
| 2026-04-30 21:08 | 17.67509 | -62.58114 | 14828 ft | 251 kts | 128° |
| 2026-04-30 21:09 | 17.66488 | -62.56614 | 15021 ft | 256 kts | 128° |
| 2026-04-30 21:09 | 17.65425 | -62.55098 | 15023 ft | 258 kts | 130° |
| 2026-04-30 21:09 | 17.64319 | -62.53611 | 15024 ft | 261 kts | 131° |
| 2026-04-30 21:09 | 17.63130 | -62.52152 | 15025 ft | 266 kts | 134° |
| 2026-04-30 21:10 | 17.61890 | -62.50708 | 15029 ft | 267 kts | 135° |
| 2026-04-30 21:10 | 17.60699 | -62.49230 | 15028 ft | 263 kts | 130° |
| 2026-04-30 21:10 | 17.59684 | -62.47651 | 15024 ft | 259 kts | 127° |
| 2026-04-30 21:10 | 17.58610 | -62.46132 | 15022 ft | 262 kts | 131° |
| 2026-04-30 21:11 | 17.57510 | -62.44584 | 15016 ft | 267 kts | 128° |
| 2026-04-30 21:11 | 17.56419 | -62.43036 | 15029 ft | 268 kts | 129° |
| 2026-04-30 21:11 | 17.55311 | -62.41454 | 15030 ft | 270 kts | 128° |
| 2026-04-30 21:11 | 17.54217 | -62.39858 | 15029 ft | 270 kts | 128° |
| 2026-04-30 21:12 | 17.53121 | -62.38254 | 15017 ft | 270 kts | 128° |
| 2026-04-30 21:12 | 17.52018 | -62.36660 | 15018 ft | 270 kts | 129° |
| 2026-04-30 21:12 | 17.50906 | -62.35075 | 15019 ft | 270 kts | 128° |
| 2026-04-30 21:12 | 17.49807 | -62.33476 | 15007 ft | 271 kts | 128° |
| 2026-04-30 21:13 | 17.48712 | -62.31877 | 15030 ft | 270 kts | 128° |
| 2026-04-30 21:13 | 17.47604 | -62.30293 | 15018 ft | 270 kts | 129° |
| 2026-04-30 21:13 | 17.46474 | -62.28717 | 15010 ft | 270 kts | 129° |
| 2026-04-30 21:13 | 17.45375 | -62.27117 | 15007 ft | 270 kts | 128° |
| 2026-04-30 21:14 | 17.44276 | -62.25515 | 15007 ft | 270 kts | 128° |
| 2026-04-30 21:14 | 17.43182 | -62.23905 | 14981 ft | 270 kts | 128° |
| 2026-04-30 21:14 | 17.42069 | -62.22322 | 14990 ft | 270 kts | 129° |
| 2026-04-30 21:14 | 17.40955 | -62.20738 | 14986 ft | 270 kts | 128° |
| 2026-04-30 21:15 | 17.39854 | -62.19143 | 14995 ft | 270 kts | 128° |
| 2026-04-30 21:15 | 17.38755 | -62.17548 | 14995 ft | 270 kts | 129° |
| 2026-04-30 21:15 | 17.37661 | -62.15991 | 14991 ft | 268 kts | 129° |
| 2026-04-30 21:15 | 17.36556 | -62.14424 | 14989 ft | 266 kts | 129° |
| 2026-04-30 21:16 | 17.35460 | -62.12869 | 14987 ft | 265 kts | 129° |
| 2026-04-30 21:16 | 17.34367 | -62.11319 | 14991 ft | 266 kts | 129° |
| 2026-04-30 21:16 | 17.33293 | -62.09795 | 14760 ft | 249 kts | 129° |
| 2026-04-30 21:16 | 17.32307 | -62.08295 | 14041 ft | 249 kts | 119° |
| 2026-04-30 21:17 | 17.31714 | -62.06604 | 13329 ft | 246 kts | 108° |
| 2026-04-30 21:17 | 17.31042 | -62.04977 | 12543 ft | 243 kts | 122° |
| 2026-04-30 21:17 | 17.30159 | -62.03487 | 11850 ft | 237 kts | 126° |
| 2026-04-30 21:17 | 17.29133 | -62.02163 | 11180 ft | 232 kts | 134° |
| 2026-04-30 21:18 | 17.28050 | -62.00956 | 10523 ft | 229 kts | 135° |
| 2026-04-30 21:18 | 17.26955 | -61.99766 | 9883 ft | 225 kts | 135° |
| 2026-04-30 21:18 | 17.25869 | -61.98609 | 9194 ft | 221 kts | 135° |
| 2026-04-30 21:18 | 17.24787 | -61.97471 | 8518 ft | 218 kts | 135° |
| 2026-04-30 21:19 | 17.23744 | -61.96381 | 8091 ft | 204 kts | 135° |
| 2026-04-30 21:19 | 17.22780 | -61.95432 | 7985 ft | 185 kts | 141° |
| 2026-04-30 21:19 | 17.21630 | -61.94706 | 7996 ft | 202 kts | 153° |
| 2026-04-30 21:19 | 17.20322 | -61.94068 | 8009 ft | 212 kts | 155° |
| 2026-04-30 21:20 | 17.18963 | -61.93419 | 8014 ft | 216 kts | 155° |
| 2026-04-30 21:20 | 17.17588 | -61.92863 | 8009 ft | 208 kts | 163° |
| 2026-04-30 21:20 | 17.16215 | -61.92474 | 7978 ft | 196 kts | 165° |
| 2026-04-30 21:20 | 17.14890 | -61.92121 | 7184 ft | 202 kts | 165° |
| 2026-04-30 21:21 | 17.13542 | -61.91774 | 6697 ft | 195 kts | 165° |
| 2026-04-30 21:21 | 17.12229 | -61.91441 | 6118 ft | 194 kts | 165° |
| 2026-04-30 21:21 | 17.09648 | -61.90779 | 4980 ft | 191 kts | 165° |
| 2026-04-30 21:22 | 17.08377 | -61.90459 | 4448 ft | 186 kts | 165° |
| 2026-04-30 21:22 | 17.07442 | -61.87486 | 3204 ft | 158 kts | 70° |
| 2026-04-30 21:23 | 17.08130 | -61.86588 | 2768 ft | 161 kts | 46° |
| 2026-04-30 21:23 | 17.08942 | -61.85815 | 2421 ft | 153 kts | 45° |
| 2026-04-30 21:23 | 17.10352 | -61.84449 | 1177 ft | 120 kts | 50° |
| 2026-04-30 21:24 | 17.10885 | -61.83804 | 986 ft | 117 kts | 54° |
| 2026-04-30 21:24 | 17.11361 | -61.83120 | 773 ft | 118 kts | 58° |
| 2026-04-30 21:24 | 17.11814 | -61.82444 | 585 ft | 110 kts | 59° |
| 2026-04-30 21:24 | 17.12196 | -61.81792 | 442 ft | 102 kts | 60° |
| 2026-04-30 21:25 | 17.12888 | -61.80602 | 101 ft | 82 kts | 62° |
| 2026-04-30 21:25 | 17.13153 | -61.80142 | 57 ft | 58 kts | 59° |
| 2026-04-30 21:25 | 17.13323 | -61.79853 | 52 ft | 36 kts | 59° |
| 2026-04-30 21:26 | 17.13577 | -61.79431 | 53 ft | 38 kts | 57° |
| 2026-04-30 21:26 | 17.13703 | -61.79217 | 50 ft | 42 kts | 60° |
| 2026-04-30 21:27 | 17.13872 | -61.79217 | 49 ft | 2 kts | 279° |
| 2026-04-30 21:27 | 17.13883 | -61.79254 | 50 ft | 5 kts | 325° |
| 2026-04-30 21:27 | 17.13905 | -61.79268 | 50 ft | 0 kts | 328° |
| 2026-04-30 21:29 | 17.14157 | -61.78928 | 45 ft | 0 kts | 295° |